createdAt,value
2018-09-24T00:01:52.736Z,99888.53
2018-09-24T00:04:20.319Z,99897.12
2018-09-24T00:06:48.010Z,99913.02
2018-09-24T00:09:15.631Z,99929.80
2018-09-24T00:11:43.272Z,99960.55
2018-09-24T00:14:10.938Z,99947.33
2018-09-24T00:16:38.598Z,99973.53
2018-09-24T00:19:06.378Z,99957.79
2018-09-24T00:21:34.020Z,99949.80
2018-09-24T00:24:01.654Z,99972.27
2018-09-24T00:26:29.275Z,99972.58
2018-09-24T00:28:56.930Z,100006.48
2018-09-24T00:31:24.672Z,99993.44
2018-09-24T00:33:52.302Z,99992.82
2018-09-24T00:36:20.328Z,100000.50
2018-09-24T00:38:47.985Z,100012.92
2018-09-24T00:41:15.805Z,100022.03
2018-09-24T00:43:43.463Z,100017.13
2018-09-24T00:46:11.189Z,100026.95
2018-09-24T00:48:39.007Z,100029.56
2018-09-24T00:51:06.711Z,100026.31
2018-09-24T00:53:34.343Z,100037.00
2018-09-24T00:56:02.032Z,100026.07
2018-09-24T00:58:30.498Z,100034.44
2018-09-24T01:00:58.162Z,100040.34
2018-09-24T01:03:25.751Z,100049.73
2018-09-24T01:05:58.646Z,100053.38
2018-09-24T01:08:26.792Z,100056.86
2018-09-24T01:10:54.411Z,100059.92
2018-09-24T01:13:22.113Z,100073.14
2018-09-24T01:15:49.755Z,100076.55
2018-09-24T01:18:17.448Z,100079.07
2018-09-24T01:20:45.059Z,100078.73
2018-09-24T01:23:12.721Z,100088.45
2018-09-24T01:25:40.401Z,100083.78
2018-09-24T01:28:08.087Z,100105.15
2018-09-24T01:30:35.988Z,100101.94
2018-09-24T01:33:03.750Z,100127.70
2018-09-24T01:35:31.366Z,100112.16
2018-09-24T01:37:59.031Z,100119.13
2018-09-24T01:40:26.640Z,100119.22
2018-09-24T01:42:54.296Z,100142.74
2018-09-24T01:45:22.348Z,100140.69
2018-09-24T01:47:49.964Z,100131.28
2018-09-24T01:50:17.575Z,100139.70
2018-09-24T01:52:45.184Z,100142.84
2018-09-24T01:55:12.784Z,100142.47
2018-09-24T01:57:40.426Z,100149.34
2018-09-24T02:00:08.194Z,100154.20
2018-09-24T02:02:35.830Z,100161.49
2018-09-24T02:05:03.500Z,100169.91
2018-09-24T02:07:31.309Z,100175.42
2018-09-24T02:09:58.926Z,100167.39
2018-09-24T02:12:26.566Z,100189.58
2018-09-24T02:14:54.181Z,100186.39
2018-09-24T02:17:22.733Z,100186.06
2018-09-24T02:19:51.066Z,100186.19
2018-09-24T02:22:27.045Z,100191.61
2018-09-24T02:24:55.809Z,100198.21
2018-09-24T02:27:23.493Z,100211.27
2018-09-24T02:29:51.349Z,100207.24
2018-09-24T02:32:19.067Z,100200.20
2018-09-24T02:34:47.779Z,100204.13
2018-09-24T02:37:16.380Z,100210.67
2018-09-24T02:39:44.098Z,100217.99
2018-09-24T02:42:11.738Z,100235.91
2018-09-24T02:44:39.375Z,100242.11
2018-09-24T02:47:07.078Z,100223.14
2018-09-24T02:49:34.781Z,100239.34
2018-09-24T02:52:03.834Z,100257.52
2018-09-24T02:54:32.870Z,100250.56
2018-09-24T02:57:00.563Z,100252.08
2018-09-24T02:59:28.218Z,100259.47
2018-09-24T03:01:56.067Z,100262.16
2018-09-24T03:04:23.755Z,100274.49
2018-09-24T03:06:51.433Z,100267.42
2018-09-24T03:09:19.089Z,100271.88
2018-09-24T03:11:47.103Z,100283.34
2018-09-24T03:14:22.916Z,100293.92
2018-09-24T03:16:51.398Z,100287.55
2018-09-24T03:19:19.105Z,100299.33
2018-09-24T03:21:46.836Z,100294.95
2018-09-24T03:24:14.583Z,100307.11
2018-09-24T03:26:42.804Z,100303.57
2018-09-24T03:29:23.368Z,100306.73
2018-09-24T03:31:51.482Z,100309.34
2018-09-24T03:34:19.536Z,100305.84
2018-09-24T03:36:48.026Z,100308.92
2018-09-24T03:39:15.772Z,100314.53
2018-09-24T03:41:43.776Z,100316.92
2018-09-24T03:44:11.429Z,100312.07
2018-09-24T03:46:39.717Z,100317.07
2018-09-24T03:49:07.631Z,100324.16
2018-09-24T03:51:35.265Z,100324.36
2018-09-24T03:54:02.942Z,100331.98
2018-09-24T03:56:30.529Z,100328.97
2018-09-24T03:58:58.191Z,100318.36
2018-09-24T04:01:25.979Z,100338.55
2018-09-24T04:03:59.490Z,100321.69
2018-09-24T04:06:33.100Z,100343.00
2018-09-24T04:09:06.602Z,100333.85
2018-09-24T04:11:39.988Z,100342.91
2018-09-24T04:14:13.490Z,100342.92
2018-09-24T04:16:46.888Z,100354.11
2018-09-24T04:19:20.396Z,100352.34
2018-09-24T04:21:53.695Z,100350.41
2018-09-24T04:24:27.051Z,100348.02
2018-09-24T04:27:00.353Z,100368.00
2018-09-24T04:29:33.930Z,100360.22
2018-09-24T04:32:07.500Z,100365.34
2018-09-24T04:34:40.813Z,100370.59
2018-09-24T04:37:14.105Z,100366.47
2018-09-24T04:39:47.625Z,100367.25
2018-09-24T04:42:21.066Z,100390.51
2018-09-24T04:44:54.427Z,100374.62
2018-09-24T04:47:27.932Z,100379.02
2018-09-24T04:50:01.231Z,100372.83
2018-09-24T04:52:34.501Z,100377.48
2018-09-24T04:55:09.205Z,100370.16
2018-09-24T04:57:42.671Z,100392.19
2018-09-24T05:00:16.222Z,100396.96
2018-09-24T05:02:49.820Z,100402.00
2018-09-24T05:05:23.211Z,100417.80
2018-09-24T05:07:56.576Z,100409.13
2018-09-24T05:10:30.045Z,100404.99
2018-09-24T05:13:03.437Z,100377.02
2018-09-24T05:15:36.678Z,100413.69
2018-09-24T05:18:10.328Z,100419.58
2018-09-24T05:20:43.766Z,100434.46
2018-09-24T05:23:17.239Z,100438.46
2018-09-24T05:25:50.789Z,100441.79
2018-09-24T05:28:24.288Z,100438.45
2018-09-24T05:30:57.829Z,100449.47
2018-09-24T05:33:31.355Z,100446.95
2018-09-24T05:36:04.865Z,100447.34
2018-09-24T05:38:38.216Z,100452.84
2018-09-24T05:41:11.466Z,100450.92
2018-09-24T05:43:44.800Z,100459.01
2018-09-24T05:46:18.108Z,100457.85
2018-09-24T05:48:51.638Z,100450.95
2018-09-24T05:51:24.897Z,100470.48
2018-09-24T05:53:58.276Z,100466.90
2018-09-24T05:56:31.615Z,100477.44
2018-09-24T05:59:05.150Z,100472.89
2018-09-24T06:01:38.827Z,100477.28
2018-09-24T06:04:12.728Z,100480.98
2018-09-24T06:06:46.263Z,100489.55
2018-09-24T06:09:19.595Z,100485.38
2018-09-24T06:11:52.804Z,100484.69
2018-09-24T06:14:26.311Z,100485.92
2018-09-24T06:16:59.640Z,100512.61
2018-09-24T06:19:34.061Z,100520.80
2018-09-24T06:22:07.628Z,100515.70
2018-09-24T06:24:41.242Z,100526.96
2018-09-24T06:27:14.697Z,100535.66
2018-09-24T06:29:47.992Z,100524.48
2018-09-24T06:32:21.302Z,100526.97
2018-09-24T06:34:54.819Z,100534.48
2018-09-24T06:37:28.290Z,100532.91
2018-09-24T06:40:01.794Z,100556.91
2018-09-24T06:42:35.109Z,100554.47
2018-09-24T06:45:08.853Z,100595.60
2018-09-24T06:47:42.353Z,100570.09
2018-09-24T06:50:15.839Z,100577.04
2018-09-24T06:52:49.349Z,100579.27
2018-09-24T06:55:22.780Z,100627.46
2018-09-24T06:57:55.989Z,100591.36
2018-09-24T07:00:29.350Z,100591.42
2018-09-24T07:03:02.658Z,100589.26
2018-09-24T07:05:36.282Z,100581.30
2018-09-24T07:08:09.510Z,100597.14
2018-09-24T07:10:42.863Z,100598.98
2018-09-24T07:13:16.412Z,100634.95
2018-09-24T07:15:49.940Z,100612.85
2018-09-24T07:18:23.470Z,100615.85
2018-09-24T07:20:56.761Z,100611.52
2018-09-24T07:23:30.019Z,100615.80
2018-09-24T07:26:03.398Z,100625.75
2018-09-24T07:28:36.947Z,100624.13
2018-09-24T07:31:10.233Z,100623.52
2018-09-24T07:33:43.773Z,100645.61
2018-09-24T07:36:17.229Z,100640.08
2018-09-24T07:38:50.725Z,100658.13
2018-09-24T07:41:24.103Z,100632.22
2018-09-24T07:43:57.411Z,100657.06
2018-09-24T07:46:30.949Z,100649.95
2018-09-24T07:49:04.245Z,100664.63
2018-09-24T07:51:37.629Z,100682.39
2018-09-24T07:54:10.877Z,100670.38
2018-09-24T07:56:44.233Z,100679.88
2018-09-24T07:59:17.807Z,100681.14
2018-09-24T08:01:51.277Z,100685.29
2018-09-24T08:04:24.869Z,100680.66
2018-09-24T08:06:58.223Z,100679.55
2018-09-24T08:09:31.777Z,100682.97
2018-09-24T08:12:05.316Z,100686.85
2018-09-24T08:14:38.677Z,100699.23
2018-09-24T08:17:12.203Z,100701.48
2018-09-24T08:19:45.598Z,100705.59
2018-09-24T08:22:19.091Z,100692.58
2018-09-24T08:24:52.616Z,100712.14
2018-09-24T08:27:26.092Z,100710.83
2018-09-24T08:29:59.621Z,100709.50
2018-09-24T08:32:33.266Z,100713.01
2018-09-24T08:35:06.669Z,100723.45
2018-09-24T08:37:40.187Z,100705.05
2018-09-24T08:40:13.686Z,100722.75
2018-09-24T08:42:47.267Z,100717.30
2018-09-24T08:45:20.538Z,100744.88
2018-09-24T08:47:53.858Z,100734.02
2018-09-24T08:50:27.172Z,100727.91
2018-09-24T08:53:00.730Z,100742.42
2018-09-24T08:55:34.103Z,100722.93
2018-09-24T08:58:07.655Z,100744.88
2018-09-24T09:00:40.974Z,100749.09
2018-09-24T09:03:14.492Z,100738.83
2018-09-24T09:05:48.026Z,100757.95
2018-09-24T09:08:21.364Z,100754.11
2018-09-24T09:10:54.584Z,100778.91
2018-09-24T09:13:27.920Z,100787.12
2018-09-24T09:16:01.214Z,100765.25
2018-09-24T09:18:34.820Z,100753.75
2018-09-24T09:21:08.349Z,100758.03
2018-09-24T09:23:41.819Z,100775.13
2018-09-24T09:26:15.262Z,100779.66
2018-09-24T09:28:48.755Z,100778.65
2018-09-24T09:31:22.158Z,100778.48
2018-09-24T09:33:55.701Z,100785.33
2018-09-24T09:36:29.287Z,100780.12
2018-09-24T09:39:02.669Z,100801.05
2018-09-24T09:41:36.133Z,100802.89
2018-09-24T09:44:09.615Z,100795.03
2018-09-24T09:46:43.126Z,100798.66
2018-09-24T09:49:16.664Z,100802.41
2018-09-24T09:51:50.143Z,100796.33
2018-09-24T09:54:23.639Z,100814.36
2018-09-24T09:56:57.064Z,100828.12
2018-09-24T09:59:30.629Z,100815.44
2018-09-24T10:02:03.998Z,100819.63
2018-09-24T10:04:37.539Z,100801.92
2018-09-24T10:07:10.976Z,100805.27
2018-09-24T10:09:44.370Z,100810.97
2018-09-24T10:12:17.592Z,100840.66
2018-09-24T10:14:51.077Z,100818.88
2018-09-24T10:17:24.592Z,100832.06
2018-09-24T10:19:58.075Z,100825.95
2018-09-24T10:22:31.428Z,100825.94
2018-09-24T10:25:04.731Z,100827.83
2018-09-24T10:27:38.086Z,100831.03
2018-09-24T10:30:11.622Z,100836.42
2018-09-24T10:32:45.220Z,100848.13
2018-09-24T10:35:18.802Z,100835.74
2018-09-24T10:37:52.345Z,100830.39
2018-09-24T10:40:25.850Z,100842.23
2018-09-24T10:42:59.256Z,100832.69
2018-09-24T10:45:32.916Z,100851.83
2018-09-24T10:48:06.957Z,100854.65
2018-09-24T10:50:40.369Z,100860.05
2018-09-24T10:53:13.871Z,100859.60
2018-09-24T10:55:47.629Z,100870.58
2018-09-24T10:58:21.724Z,100852.53
2018-09-24T11:00:55.371Z,100848.52
2018-09-24T11:03:28.753Z,100880.89
2018-09-24T11:06:02.548Z,100868.38
2018-09-24T11:08:35.995Z,100871.34
2018-09-24T11:11:09.463Z,100866.25
2018-09-24T11:13:42.974Z,100859.19
2018-09-24T11:16:16.617Z,100864.70
2018-09-24T11:18:49.995Z,100881.22
2018-09-24T11:21:23.707Z,100868.09
2018-09-24T11:23:57.200Z,100846.77
2018-09-24T11:29:04.261Z,100871.35
2018-09-24T11:31:37.558Z,100875.45
2018-09-24T11:34:10.958Z,100874.54
2018-09-24T11:36:44.390Z,100878.36
2018-09-24T11:39:17.767Z,100907.52
2018-09-24T11:41:51.061Z,100929.08
2018-09-24T11:44:24.651Z,100890.84
2018-09-24T11:46:58.367Z,100824.66
2018-09-24T11:49:31.859Z,100874.02
2018-09-24T11:52:05.268Z,100869.45
2018-09-24T11:54:38.712Z,100898.13
2018-09-24T11:57:12.366Z,100873.33
2018-09-24T11:59:45.754Z,100878.06
2018-09-24T12:02:19.351Z,100890.09
2018-09-24T12:04:52.772Z,100880.55
2018-09-24T12:07:26.341Z,100884.47
2018-09-24T12:09:59.845Z,100876.91
2018-09-24T12:12:33.478Z,100903.29
2018-09-24T12:15:07.081Z,100902.94
2018-09-24T12:17:40.596Z,100860.97
2018-09-24T12:20:14.171Z,100892.70
2018-09-24T12:22:47.526Z,100888.77
2018-09-24T12:25:20.856Z,100883.30
2018-09-24T12:27:54.143Z,100883.86
2018-09-24T12:30:27.686Z,100909.18
2018-09-24T12:33:01.061Z,100925.66
2018-09-24T12:35:34.418Z,100895.63
2018-09-24T12:38:07.844Z,100902.78
2018-09-24T12:40:41.238Z,100901.10
2018-09-24T12:43:14.909Z,100901.30
2018-09-24T12:45:48.328Z,100905.19
2018-09-24T12:48:21.663Z,100907.31
2018-09-24T12:50:55.020Z,100918.59
2018-09-24T12:53:28.536Z,100914.34
2018-09-24T12:56:02.835Z,100900.27
2018-09-24T12:58:36.543Z,100893.33
2018-09-24T13:01:10.151Z,100898.68
2018-09-24T13:03:43.790Z,100890.18
2018-09-24T13:06:17.118Z,100909.89
2018-09-24T13:08:50.680Z,100910.66
2018-09-24T13:11:23.933Z,100916.05
2018-09-24T13:13:57.462Z,100916.00
2018-09-24T13:18:01.595Z,100881.28
2018-09-24T13:20:34.941Z,100918.37
2018-09-24T13:23:08.257Z,100909.26
2018-09-24T13:25:41.772Z,100916.40
2018-09-24T13:28:15.164Z,100918.30
2018-09-24T13:30:48.720Z,100905.42
2018-09-24T13:33:22.057Z,100902.55
2018-09-24T13:35:55.434Z,100912.12
2018-09-24T13:38:28.728Z,100919.69
2018-09-24T13:41:03.159Z,100927.03
2018-09-24T13:43:36.642Z,100916.16
2018-09-24T13:46:12.231Z,100908.58
2018-09-24T13:48:45.704Z,100918.67
2018-09-24T13:51:19.201Z,100921.33
2018-09-24T13:53:52.524Z,100913.95
2018-09-24T13:56:26.108Z,100921.92
2018-09-24T13:58:59.479Z,100905.72
2018-09-24T14:01:32.774Z,100934.75
2018-09-24T14:04:06.309Z,100941.67
2018-09-24T14:06:39.663Z,100949.44
2018-09-24T14:09:14.196Z,100944.09
2018-09-24T14:11:47.482Z,100959.12
2018-09-24T14:14:21.344Z,100943.14
2018-09-24T14:16:54.703Z,100954.90
2018-09-24T14:19:28.512Z,100957.51
2018-09-24T14:22:02.045Z,100958.66
2018-09-24T14:24:36.177Z,100964.95
2018-09-24T14:27:09.800Z,100954.92
2018-09-24T14:29:43.826Z,100974.02
2018-09-24T14:32:17.288Z,100953.02
2018-09-24T14:34:50.605Z,100952.22
2018-09-24T14:37:23.978Z,100960.52
2018-09-24T14:39:59.041Z,100947.62
2018-09-24T14:42:32.534Z,100945.55
2018-09-24T14:45:05.841Z,100941.89
2018-09-24T14:47:39.404Z,100949.70
2018-09-24T14:50:12.842Z,100947.29
2018-09-24T14:52:46.292Z,100951.91
2018-09-24T14:55:20.292Z,100997.06
2018-09-24T14:57:53.633Z,100959.86
2018-09-24T15:00:27.187Z,100997.38
2018-09-24T15:03:00.422Z,100975.95
2018-09-24T15:05:33.717Z,100990.95
2018-09-24T15:08:07.154Z,100973.23
2018-09-24T15:10:41.021Z,100976.03
2018-09-24T15:13:14.777Z,100981.43
2018-09-24T15:15:48.382Z,100980.77
2018-09-24T15:18:21.950Z,100994.58
2018-09-24T15:20:55.388Z,100990.27
2018-09-24T15:23:28.644Z,100974.27
2018-09-24T15:26:02.434Z,100976.31
2018-09-24T15:28:35.982Z,100976.09
2018-09-24T15:31:09.489Z,100984.11
2018-09-24T15:33:43.157Z,100974.72
2018-09-24T15:36:16.741Z,100971.88
2018-09-24T15:38:50.104Z,100984.88
2018-09-24T15:41:23.702Z,100982.71
2018-09-24T15:43:57.304Z,101001.18
2018-09-24T15:46:30.791Z,100977.50
2018-09-24T15:49:04.308Z,100984.20
2018-09-24T15:51:37.967Z,100973.13
2018-09-24T15:54:11.789Z,100995.26
2018-09-24T15:56:45.478Z,100983.91
2018-09-24T15:59:18.996Z,100983.80
2018-09-24T16:01:52.466Z,100987.00
2018-09-24T16:04:26.456Z,100979.02
2018-09-24T16:07:00.158Z,100994.17
2018-09-24T16:09:33.586Z,100994.08
2018-09-24T16:12:06.888Z,100999.25
2018-09-24T16:14:40.095Z,100983.91
2018-09-24T16:17:13.431Z,100999.73
2018-09-24T16:19:46.785Z,101009.43
2018-09-24T16:22:20.305Z,101011.13
2018-09-24T16:24:53.637Z,100997.03
2018-09-24T16:27:26.955Z,101005.47
2018-09-24T16:30:00.526Z,100999.47
2018-09-24T16:32:33.885Z,101012.37
2018-09-24T16:35:07.253Z,101015.69
2018-09-24T16:37:40.650Z,100989.01
2018-09-24T16:40:14.083Z,101005.62
2018-09-24T16:42:47.401Z,101015.07
2018-09-24T16:45:20.833Z,101028.59
2018-09-24T16:47:54.229Z,101038.84
2018-09-24T16:50:27.534Z,101017.21
2018-09-24T16:53:00.861Z,101021.80
2018-09-24T16:55:34.182Z,101025.88
2018-09-24T16:58:07.540Z,101031.55
2018-09-24T17:00:41.041Z,101043.37
2018-09-24T17:03:14.568Z,101030.15
2018-09-24T17:05:48.145Z,101019.91
2018-09-24T17:08:21.616Z,101063.70
2018-09-24T17:10:55.100Z,101054.42
2018-09-24T17:13:28.423Z,101046.03
2018-09-24T17:16:01.869Z,101045.17
2018-09-24T17:18:35.419Z,101043.20
2018-09-24T17:21:08.948Z,101059.97
2018-09-24T17:23:42.297Z,101051.92
2018-09-24T17:26:15.673Z,101051.34
2018-09-24T17:28:49.172Z,101059.91
2018-09-24T17:31:22.645Z,101055.91
2018-09-24T17:33:56.007Z,101056.98
2018-09-24T17:36:29.626Z,101036.98
2018-09-24T17:39:03.106Z,101049.91
2018-09-24T17:41:36.733Z,101055.08
2018-09-24T17:44:10.358Z,101072.02
2018-09-24T17:46:43.843Z,101075.41
2018-09-24T17:49:17.296Z,101091.55
2018-09-24T17:51:50.575Z,101089.24
2018-09-24T17:54:24.178Z,101082.62
2018-09-24T17:56:57.575Z,101081.70
2018-09-24T17:59:31.192Z,101091.02
2018-09-24T18:02:04.612Z,101081.10
2018-09-24T18:04:38.131Z,101091.72
2018-09-24T18:07:11.637Z,101094.72
2018-09-24T18:09:44.922Z,101112.41
2018-09-24T18:12:18.281Z,101112.41
2018-09-24T18:14:51.772Z,101111.19
2018-09-24T18:17:25.098Z,101119.88
2018-09-24T18:19:58.673Z,101122.13
2018-09-24T18:22:32.104Z,101123.28
2018-09-24T18:25:05.693Z,101145.97
2018-09-24T18:27:39.325Z,101141.37
2018-09-24T18:30:12.924Z,101155.44
2018-09-24T18:32:46.523Z,101147.98
2018-09-24T18:35:20.085Z,101156.39
2018-09-24T18:37:53.649Z,101159.69
2018-09-24T18:40:27.205Z,101163.00
2018-09-24T18:43:00.678Z,101165.08
2018-09-24T18:45:34.171Z,101164.62
2018-09-24T18:48:07.501Z,101171.25
2018-09-24T18:50:47.980Z,101185.52
2018-09-24T18:53:22.033Z,101184.03
2018-09-24T18:55:55.624Z,101185.47
2018-09-24T18:58:29.203Z,101187.48
2018-09-24T19:02:32.234Z,101176.09
2018-09-24T19:05:05.532Z,101183.52
2018-09-24T19:07:39.224Z,101197.83
2018-09-24T19:10:12.940Z,101184.13
2018-09-24T19:12:46.356Z,101179.20
2018-09-24T19:15:19.965Z,101185.90
2018-09-24T19:17:53.954Z,101201.95
2018-09-24T19:20:27.792Z,101196.05
2018-09-24T19:23:01.230Z,101201.75
2018-09-24T19:25:34.876Z,101200.30
2018-09-24T19:28:08.274Z,101216.55
2018-09-24T19:30:42.044Z,101216.44
2018-09-24T19:33:15.615Z,101206.03
2018-09-24T19:35:49.382Z,101214.86
2018-09-24T19:38:22.897Z,101218.20
2018-09-24T19:40:56.417Z,101204.46
2018-09-24T19:43:30.070Z,101233.77
2018-09-24T19:46:03.634Z,101225.39
2018-09-24T19:48:37.206Z,101227.95
2018-09-24T19:51:10.852Z,101231.25
2018-09-24T19:53:44.364Z,101239.16
2018-09-24T19:56:17.853Z,101248.78
2018-09-24T19:58:51.380Z,101257.44
2018-09-24T20:01:24.831Z,101254.49
2018-09-24T20:03:58.442Z,101237.30
2018-09-24T20:06:31.987Z,101241.09
2018-09-24T20:09:05.384Z,101239.30
2018-09-24T20:11:38.905Z,101245.17
2018-09-24T20:14:12.278Z,101248.91
2018-09-24T20:16:45.891Z,101256.12
2018-09-24T20:19:19.493Z,101257.39
2018-09-24T20:21:53.179Z,101260.63
2018-09-24T20:24:26.742Z,101258.81
2018-09-24T20:27:00.244Z,101285.59
2018-09-24T20:29:33.899Z,101273.42
2018-09-24T20:32:07.408Z,101284.16
2018-09-24T20:34:40.871Z,101278.36
2018-09-24T20:37:14.419Z,101288.53
2018-09-24T20:39:47.849Z,101293.88
2018-09-24T20:42:21.375Z,101292.97
2018-09-24T20:44:54.922Z,101300.99
2018-09-24T20:47:28.512Z,101299.80
2018-09-24T20:50:02.034Z,101306.08
2018-09-24T20:52:35.650Z,101303.40
2018-09-24T20:55:09.156Z,101315.56
2018-09-24T20:57:42.569Z,101316.77
2018-09-24T21:00:16.169Z,101309.75
2018-09-24T21:02:49.612Z,101297.81
2018-09-24T21:05:23.288Z,101317.47
2018-09-24T21:07:56.661Z,101313.09
2018-09-24T21:10:30.231Z,101318.97
2018-09-24T21:13:03.855Z,101323.81
2018-09-24T21:15:37.258Z,101321.86
2018-09-24T21:18:10.781Z,101328.95
2018-09-24T21:20:44.217Z,101325.52
2018-09-24T21:23:17.727Z,101334.45
2018-09-24T21:25:51.084Z,101341.05
2018-09-24T21:28:25.617Z,101270.67
2018-09-24T21:30:59.134Z,101340.97
2018-09-24T21:33:32.593Z,101346.41
2018-09-24T21:36:06.090Z,101352.61
2018-09-24T21:38:39.370Z,101356.80
2018-09-24T21:41:12.582Z,101359.73
2018-09-24T21:43:46.116Z,101360.80
2018-09-24T21:46:19.678Z,101370.97
2018-09-24T21:48:53.040Z,101369.86
2018-09-24T21:51:26.301Z,101376.34
2018-09-24T21:53:59.854Z,101373.90
2018-09-24T21:56:33.228Z,101377.11
2018-09-24T21:59:06.557Z,101384.74
2018-09-24T22:01:39.918Z,101381.59
2018-09-24T22:04:13.426Z,101387.11
2018-09-24T22:06:46.750Z,101392.19
2018-09-24T22:09:20.368Z,101390.88
2018-09-24T22:11:53.709Z,101397.06
2018-09-24T22:14:27.044Z,101401.12
2018-09-24T22:17:01.797Z,101411.66
2018-09-24T22:19:35.472Z,101412.44
2018-09-24T22:22:08.786Z,101422.07
2018-09-24T22:24:42.108Z,101415.79
2018-09-24T22:27:15.569Z,101421.86
2018-09-24T22:29:48.902Z,101417.89
2018-09-24T22:32:22.425Z,101426.14
2018-09-24T22:34:55.932Z,101438.65
2018-09-24T22:37:29.176Z,101423.61
2018-09-24T22:40:03.796Z,101435.94
2018-09-24T22:42:37.346Z,101441.54
2018-09-24T22:45:10.865Z,101438.53
2018-09-24T22:47:44.189Z,101445.00
2018-09-24T22:50:17.721Z,101445.56
2018-09-24T22:52:51.080Z,101448.70
2018-09-24T22:55:24.665Z,101452.16
2018-09-24T22:57:58.091Z,101451.98
2018-09-24T23:00:31.486Z,101444.21
2018-09-24T23:03:04.869Z,101452.77
2018-09-24T23:05:38.373Z,101443.95
2018-09-24T23:08:11.932Z,101451.23
2018-09-24T23:10:45.315Z,101457.31
2018-09-24T23:13:18.798Z,101456.38
2018-09-24T23:15:52.089Z,101459.02
2018-09-24T23:18:25.424Z,101458.00
2018-09-24T23:20:59.022Z,101463.06
2018-09-24T23:23:32.332Z,101468.59
2018-09-24T23:26:05.673Z,101477.23
2018-09-24T23:28:39.265Z,101465.72
2018-09-24T23:31:12.573Z,101466.39
2018-09-24T23:33:46.085Z,101473.38
2018-09-24T23:36:19.436Z,101473.33
2018-09-24T23:38:52.842Z,101460.61
2018-09-24T23:41:26.365Z,101478.07
2018-09-24T23:43:59.858Z,101481.03
2018-09-24T23:46:33.392Z,101478.20
2018-09-24T23:49:06.866Z,101480.53
2018-09-24T23:51:40.362Z,101478.83
2018-09-24T23:54:13.715Z,101494.94
2018-09-24T23:56:47.260Z,101490.12
2018-09-24T23:59:20.853Z,101491.24
